sensor_id;sensor_type;location;lat;lon;timestamp;P1;durP1;ratioP1;P2;durP2;ratioP2
20375;SDS011;10347;51.828;6.466;2023-02-04T00:01:27;12.02;;;3.40;;
20375;SDS011;10347;51.828;6.466;2023-02-04T00:03:53;16.00;;;4.07;;
20375;SDS011;10347;51.828;6.466;2023-02-04T00:06:18;21.17;;;3.85;;
20375;SDS011;10347;51.828;6.466;2023-02-04T00:08:44;15.70;;;3.20;;
20375;SDS011;10347;51.828;6.466;2023-02-04T00:11:09;18.00;;;3.47;;
20375;SDS011;10347;51.828;6.466;2023-02-04T00:13:35;14.95;;;3.83;;
20375;SDS011;10347;51.828;6.466;2023-02-04T00:16:00;18.67;;;3.50;;
20375;SDS011;10347;51.828;6.466;2023-02-04T00:18:27;14.65;;;3.92;;
20375;SDS011;10347;51.828;6.466;2023-02-04T00:20:52;19.95;;;4.22;;
20375;SDS011;10347;51.828;6.466;2023-02-04T00:23:18;21.52;;;4.07;;
20375;SDS011;10347;51.828;6.466;2023-02-04T00:25:44;14.15;;;3.53;;
20375;SDS011;10347;51.828;6.466;2023-02-04T00:28:09;16.30;;;3.83;;
20375;SDS011;10347;51.828;6.466;2023-02-04T00:30:35;20.42;;;3.95;;
20375;SDS011;10347;51.828;6.466;2023-02-04T00:33:00;16.83;;;3.60;;
20375;SDS011;10347;51.828;6.466;2023-02-04T00:35:26;23.75;;;4.00;;
20375;SDS011;10347;51.828;6.466;2023-02-04T00:37:52;18.38;;;4.22;;
20375;SDS011;10347;51.828;6.466;2023-02-04T00:40:18;20.30;;;4.45;;
20375;SDS011;10347;51.828;6.466;2023-02-04T00:42:43;18.52;;;3.88;;
20375;SDS011;10347;51.828;6.466;2023-02-04T00:45:10;22.38;;;4.57;;
20375;SDS011;10347;51.828;6.466;2023-02-04T00:47:36;21.73;;;4.80;;
20375;SDS011;10347;51.828;6.466;2023-02-04T00:50:02;17.75;;;4.40;;
20375;SDS011;10347;51.828;6.466;2023-02-04T00:52:27;11.20;;;3.20;;
20375;SDS011;10347;51.828;6.466;2023-02-04T00:54:53;14.57;;;3.95;;
20375;SDS011;10347;51.828;6.466;2023-02-04T00:57:19;10.70;;;3.78;;
20375;SDS011;10347;51.828;6.466;2023-02-04T00:59:44;14.95;;;4.30;;
20375;SDS011;10347;51.828;6.466;2023-02-04T01:02:10;13.73;;;3.63;;
20375;SDS011;10347;51.828;6.466;2023-02-04T01:04:36;13.95;;;3.75;;
20375;SDS011;10347;51.828;6.466;2023-02-04T01:07:02;16.40;;;3.78;;
20375;SDS011;10347;51.828;6.466;2023-02-04T01:09:27;13.70;;;3.78;;
20375;SDS011;10347;51.828;6.466;2023-02-04T01:11:53;9.38;;;3.20;;
20375;SDS011;10347;51.828;6.466;2023-02-04T01:14:19;19.70;;;3.25;;
20375;SDS011;10347;51.828;6.466;2023-02-04T01:16:44;13.18;;;2.95;;
20375;SDS011;10347;51.828;6.466;2023-02-04T01:19:10;17.75;;;3.90;;
20375;SDS011;10347;51.828;6.466;2023-02-04T01:21:36;19.20;;;3.65;;
20375;SDS011;10347;51.828;6.466;2023-02-04T01:24:02;16.35;;;3.33;;
20375;SDS011;10347;51.828;6.466;2023-02-04T01:26:28;22.10;;;4.07;;
20375;SDS011;10347;51.828;6.466;2023-02-04T01:28:53;12.68;;;3.97;;
20375;SDS011;10347;51.828;6.466;2023-02-04T01:31:19;17.13;;;3.58;;
20375;SDS011;10347;51.828;6.466;2023-02-04T01:33:44;13.00;;;3.35;;
20375;SDS011;10347;51.828;6.466;2023-02-04T01:36:10;17.48;;;3.40;;
20375;SDS011;10347;51.828;6.466;2023-02-04T01:38:36;21.63;;;3.75;;
20375;SDS011;10347;51.828;6.466;2023-02-04T01:41:01;14.82;;;3.08;;
20375;SDS011;10347;51.828;6.466;2023-02-04T01:43:28;17.80;;;3.50;;
20375;SDS011;10347;51.828;6.466;2023-02-04T01:45:54;18.45;;;3.75;;
20375;SDS011;10347;51.828;6.466;2023-02-04T01:48:19;14.50;;;3.90;;
20375;SDS011;10347;51.828;6.466;2023-02-04T01:50:50;15.18;;;4.07;;
20375;SDS011;10347;51.828;6.466;2023-02-04T01:53:19;15.32;;;4.07;;
20375;SDS011;10347;51.828;6.466;2023-02-04T01:55:46;8.65;;;2.70;;
20375;SDS011;10347;51.828;6.466;2023-02-04T01:58:12;17.13;;;3.30;;
20375;SDS011;10347;51.828;6.466;2023-02-04T02:00:38;14.70;;;3.38;;
20375;SDS011;10347;51.828;6.466;2023-02-04T02:03:05;15.73;;;3.47;;
20375;SDS011;10347;51.828;6.466;2023-02-04T02:05:40;22.85;;;4.72;;
20375;SDS011;10347;51.828;6.466;2023-02-04T02:08:15;21.55;;;4.13;;
20375;SDS011;10347;51.828;6.466;2023-02-04T02:10:42;16.45;;;3.50;;
20375;SDS011;10347;51.828;6.466;2023-02-04T02:13:14;15.88;;;3.47;;
20375;SDS011;10347;51.828;6.466;2023-02-04T02:15:42;15.55;;;3.28;;
20375;SDS011;10347;51.828;6.466;2023-02-04T02:18:08;15.20;;;4.10;;
20375;SDS011;10347;51.828;6.466;2023-02-04T02:20:34;20.52;;;4.35;;
20375;SDS011;10347;51.828;6.466;2023-02-04T02:25:30;13.77;;;3.25;;
20375;SDS011;10347;51.828;6.466;2023-02-04T02:27:56;13.95;;;3.42;;
20375;SDS011;10347;51.828;6.466;2023-02-04T02:30:23;12.52;;;3.17;;
20375;SDS011;10347;51.828;6.466;2023-02-04T02:32:49;11.68;;;3.90;;
20375;SDS011;10347;51.828;6.466;2023-02-04T02:35:16;12.52;;;2.97;;
20375;SDS011;10347;51.828;6.466;2023-02-04T02:37:42;8.50;;;3.25;;
20375;SDS011;10347;51.828;6.466;2023-02-04T02:40:08;21.38;;;3.60;;
20375;SDS011;10347;51.828;6.466;2023-02-04T02:42:34;15.60;;;3.65;;
20375;SDS011;10347;51.828;6.466;2023-02-04T02:45:01;15.63;;;3.42;;
20375;SDS011;10347;51.828;6.466;2023-02-04T02:47:30;11.80;;;3.40;;
20375;SDS011;10347;51.828;6.466;2023-02-04T02:49:56;12.90;;;3.60;;
20375;SDS011;10347;51.828;6.466;2023-02-04T02:52:22;12.30;;;3.05;;
20375;SDS011;10347;51.828;6.466;2023-02-04T02:54:47;11.50;;;3.45;;
20375;SDS011;10347;51.828;6.466;2023-02-04T02:57:14;13.73;;;3.50;;
20375;SDS011;10347;51.828;6.466;2023-02-04T02:59:42;12.88;;;3.63;;
20375;SDS011;10347;51.828;6.466;2023-02-04T03:02:08;20.88;;;3.88;;
20375;SDS011;10347;51.828;6.466;2023-02-04T03:04:39;12.57;;;3.35;;
20375;SDS011;10347;51.828;6.466;2023-02-04T03:07:08;14.93;;;3.58;;
20375;SDS011;10347;51.828;6.466;2023-02-04T03:09:36;12.30;;;2.92;;
20375;SDS011;10347;51.828;6.466;2023-02-04T03:12:02;20.10;;;3.53;;
20375;SDS011;10347;51.828;6.466;2023-02-04T03:14:29;17.55;;;3.63;;
20375;SDS011;10347;51.828;6.466;2023-02-04T03:16:55;15.05;;;3.45;;
20375;SDS011;10347;51.828;6.466;2023-02-04T03:19:22;12.88;;;3.30;;
20375;SDS011;10347;51.828;6.466;2023-02-04T03:21:49;14.63;;;3.42;;
20375;SDS011;10347;51.828;6.466;2023-02-04T03:24:15;19.02;;;3.65;;
20375;SDS011;10347;51.828;6.466;2023-02-04T03:26:41;16.65;;;3.15;;
20375;SDS011;10347;51.828;6.466;2023-02-04T03:29:08;11.40;;;3.47;;
20375;SDS011;10347;51.828;6.466;2023-02-04T03:31:34;11.23;;;3.53;;
20375;SDS011;10347;51.828;6.466;2023-02-04T03:34:01;13.10;;;3.13;;
20375;SDS011;10347;51.828;6.466;2023-02-04T03:36:27;15.43;;;3.50;;
20375;SDS011;10347;51.828;6.466;2023-02-04T03:38:53;15.73;;;3.70;;
20375;SDS011;10347;51.828;6.466;2023-02-04T03:41:18;13.05;;;3.47;;
20375;SDS011;10347;51.828;6.466;2023-02-04T03:43:44;12.70;;;3.70;;
20375;SDS011;10347;51.828;6.466;2023-02-04T03:46:10;15.13;;;3.72;;
20375;SDS011;10347;51.828;6.466;2023-02-04T03:48:35;11.38;;;3.22;;
20375;SDS011;10347;51.828;6.466;2023-02-04T03:51:01;8.52;;;2.80;;
20375;SDS011;10347;51.828;6.466;2023-02-04T03:53:26;9.45;;;3.05;;
20375;SDS011;10347;51.828;6.466;2023-02-04T03:55:52;11.60;;;3.17;;
20375;SDS011;10347;51.828;6.466;2023-02-04T03:58:18;17.23;;;4.22;;
20375;SDS011;10347;51.828;6.466;2023-02-04T04:00:43;14.27;;;3.28;;
20375;SDS011;10347;51.828;6.466;2023-02-04T04:03:09;12.40;;;3.33;;
20375;SDS011;10347;51.828;6.466;2023-02-04T04:05:35;19.42;;;3.70;;
20375;SDS011;10347;51.828;6.466;2023-02-04T04:08:00;13.75;;;3.38;;
20375;SDS011;10347;51.828;6.466;2023-02-04T04:10:26;15.98;;;3.58;;
20375;SDS011;10347;51.828;6.466;2023-02-04T04:12:53;20.85;;;4.50;;
20375;SDS011;10347;51.828;6.466;2023-02-04T04:15:19;11.65;;;3.80;;
20375;SDS011;10347;51.828;6.466;2023-02-04T04:17:44;12.63;;;3.72;;
20375;SDS011;10347;51.828;6.466;2023-02-04T04:20:10;13.38;;;3.65;;
20375;SDS011;10347;51.828;6.466;2023-02-04T04:22:36;10.90;;;2.78;;
20375;SDS011;10347;51.828;6.466;2023-02-04T04:25:02;14.18;;;3.05;;
20375;SDS011;10347;51.828;6.466;2023-02-04T04:27:28;14.05;;;4.03;;
20375;SDS011;10347;51.828;6.466;2023-02-04T04:29:54;10.98;;;3.40;;
20375;SDS011;10347;51.828;6.466;2023-02-04T04:32:20;14.30;;;3.47;;
20375;SDS011;10347;51.828;6.466;2023-02-04T04:35:04;14.75;;;3.20;;
20375;SDS011;10347;51.828;6.466;2023-02-04T04:38:07;15.50;;;3.92;;
20375;SDS011;10347;51.828;6.466;2023-02-04T04:40:33;10.65;;;3.17;;
20375;SDS011;10347;51.828;6.466;2023-02-04T04:43:13;13.13;;;3.67;;
20375;SDS011;10347;51.828;6.466;2023-02-04T04:46:11;11.45;;;3.08;;
20375;SDS011;10347;51.828;6.466;2023-02-04T04:55:29;11.18;;;3.00;;
20375;SDS011;10347;51.828;6.466;2023-02-04T04:58:05;7.55;;;2.85;;
20375;SDS011;10347;51.828;6.466;2023-02-04T05:00:40;13.77;;;4.00;;
20375;SDS011;10347;51.828;6.466;2023-02-04T05:03:42;10.30;;;3.17;;
20375;SDS011;10347;51.828;6.466;2023-02-04T05:09:49;11.57;;;3.10;;
20375;SDS011;10347;51.828;6.466;2023-02-04T05:13:07;8.88;;;2.72;;
20375;SDS011;10347;51.828;6.466;2023-02-04T05:15:53;11.32;;;3.03;;
20375;SDS011;10347;51.828;6.466;2023-02-04T05:18:19;8.70;;;2.65;;
20375;SDS011;10347;51.828;6.466;2023-02-04T05:20:44;10.50;;;3.25;;
20375;SDS011;10347;51.828;6.466;2023-02-04T05:23:10;9.18;;;3.08;;
20375;SDS011;10347;51.828;6.466;2023-02-04T05:25:36;8.52;;;2.83;;
20375;SDS011;10347;51.828;6.466;2023-02-04T05:28:01;9.55;;;2.70;;
20375;SDS011;10347;51.828;6.466;2023-02-04T05:30:27;11.80;;;2.92;;
20375;SDS011;10347;51.828;6.466;2023-02-04T05:32:52;10.77;;;2.97;;
20375;SDS011;10347;51.828;6.466;2023-02-04T05:35:18;11.07;;;3.00;;
20375;SDS011;10347;51.828;6.466;2023-02-04T05:37:44;6.68;;;2.88;;
20375;SDS011;10347;51.828;6.466;2023-02-04T05:40:09;9.23;;;3.35;;
20375;SDS011;10347;51.828;6.466;2023-02-04T05:42:35;12.93;;;2.78;;
20375;SDS011;10347;51.828;6.466;2023-02-04T05:45:01;11.30;;;3.03;;
20375;SDS011;10347;51.828;6.466;2023-02-04T05:47:26;11.23;;;2.97;;
20375;SDS011;10347;51.828;6.466;2023-02-04T05:49:52;6.45;;;2.58;;
20375;SDS011;10347;51.828;6.466;2023-02-04T05:52:17;7.60;;;3.17;;
20375;SDS011;10347;51.828;6.466;2023-02-04T05:54:43;12.32;;;2.67;;
20375;SDS011;10347;51.828;6.466;2023-02-04T05:57:08;11.52;;;2.75;;
20375;SDS011;10347;51.828;6.466;2023-02-04T05:59:34;8.65;;;2.75;;
20375;SDS011;10347;51.828;6.466;2023-02-04T06:01:59;10.07;;;3.00;;
20375;SDS011;10347;51.828;6.466;2023-02-04T06:04:25;11.88;;;3.10;;
20375;SDS011;10347;51.828;6.466;2023-02-04T06:06:50;11.02;;;2.83;;
20375;SDS011;10347;51.828;6.466;2023-02-04T06:09:16;12.20;;;2.78;;
20375;SDS011;10347;51.828;6.466;2023-02-04T06:11:41;12.35;;;3.38;;
20375;SDS011;10347;51.828;6.466;2023-02-04T06:14:07;10.00;;;2.85;;
20375;SDS011;10347;51.828;6.466;2023-02-04T06:16:33;8.88;;;2.75;;
20375;SDS011;10347;51.828;6.466;2023-02-04T06:18:58;10.35;;;2.80;;
20375;SDS011;10347;51.828;6.466;2023-02-04T06:21:24;10.20;;;3.30;;
20375;SDS011;10347;51.828;6.466;2023-02-04T06:23:49;13.60;;;3.28;;
20375;SDS011;10347;51.828;6.466;2023-02-04T06:26:15;14.93;;;3.00;;
20375;SDS011;10347;51.828;6.466;2023-02-04T06:28:40;12.00;;;3.80;;
20375;SDS011;10347;51.828;6.466;2023-02-04T06:31:06;13.60;;;3.83;;
20375;SDS011;10347;51.828;6.466;2023-02-04T06:33:33;10.55;;;3.65;;
20375;SDS011;10347;51.828;6.466;2023-02-04T06:36:00;9.60;;;3.35;;
20375;SDS011;10347;51.828;6.466;2023-02-04T06:38:25;10.52;;;3.53;;
20375;SDS011;10347;51.828;6.466;2023-02-04T06:40:54;13.50;;;3.55;;
20375;SDS011;10347;51.828;6.466;2023-02-04T06:43:19;11.50;;;3.17;;
20375;SDS011;10347;51.828;6.466;2023-02-04T06:45:46;11.55;;;3.13;;
20375;SDS011;10347;51.828;6.466;2023-02-04T06:48:12;10.55;;;3.55;;
20375;SDS011;10347;51.828;6.466;2023-02-04T06:50:37;13.50;;;3.28;;
20375;SDS011;10347;51.828;6.466;2023-02-04T06:53:03;14.65;;;4.07;;
20375;SDS011;10347;51.828;6.466;2023-02-04T06:55:28;8.10;;;3.22;;
20375;SDS011;10347;51.828;6.466;2023-02-04T06:57:54;9.73;;;2.72;;
20375;SDS011;10347;51.828;6.466;2023-02-04T07:00:19;13.98;;;3.15;;
20375;SDS011;10347;51.828;6.466;2023-02-04T07:02:45;10.50;;;3.92;;
20375;SDS011;10347;51.828;6.466;2023-02-04T07:05:11;15.20;;;3.55;;
20375;SDS011;10347;51.828;6.466;2023-02-04T07:07:36;19.63;;;4.25;;
20375;SDS011;10347;51.828;6.466;2023-02-04T07:10:02;11.50;;;3.05;;
20375;SDS011;10347;51.828;6.466;2023-02-04T07:12:28;15.13;;;3.35;;
20375;SDS011;10347;51.828;6.466;2023-02-04T07:14:54;13.02;;;3.78;;
20375;SDS011;10347;51.828;6.466;2023-02-04T07:17:19;15.77;;;4.13;;
20375;SDS011;10347;51.828;6.466;2023-02-04T07:19:45;11.10;;;2.92;;
20375;SDS011;10347;51.828;6.466;2023-02-04T07:22:11;14.63;;;3.40;;
20375;SDS011;10347;51.828;6.466;2023-02-04T07:24:36;11.27;;;3.53;;
20375;SDS011;10347;51.828;6.466;2023-02-04T07:27:02;12.13;;;3.30;;
20375;SDS011;10347;51.828;6.466;2023-02-04T07:29:27;13.98;;;4.40;;
20375;SDS011;10347;51.828;6.466;2023-02-04T07:31:53;11.65;;;3.80;;
20375;SDS011;10347;51.828;6.466;2023-02-04T07:34:19;11.18;;;4.20;;
20375;SDS011;10347;51.828;6.466;2023-02-04T07:36:45;12.77;;;5.55;;
20375;SDS011;10347;51.828;6.466;2023-02-04T07:39:10;18.23;;;5.78;;
20375;SDS011;10347;51.828;6.466;2023-02-04T07:41:36;12.40;;;5.45;;
20375;SDS011;10347;51.828;6.466;2023-02-04T07:44:02;15.90;;;5.68;;
20375;SDS011;10347;51.828;6.466;2023-02-04T07:46:28;13.07;;;5.15;;
20375;SDS011;10347;51.828;6.466;2023-02-04T07:48:54;11.65;;;4.90;;
20375;SDS011;10347;51.828;6.466;2023-02-04T07:51:20;14.38;;;4.38;;
20375;SDS011;10347;51.828;6.466;2023-02-04T07:53:45;9.48;;;4.22;;
20375;SDS011;10347;51.828;6.466;2023-02-04T07:56:11;12.88;;;3.75;;
20375;SDS011;10347;51.828;6.466;2023-02-04T07:58:36;15.70;;;4.30;;
20375;SDS011;10347;51.828;6.466;2023-02-04T08:01:02;10.07;;;4.13;;
20375;SDS011;10347;51.828;6.466;2023-02-04T08:03:27;13.65;;;3.75;;
20375;SDS011;10347;51.828;6.466;2023-02-04T08:05:53;7.15;;;3.10;;
20375;SDS011;10347;51.828;6.466;2023-02-04T08:08:19;14.55;;;3.75;;
20375;SDS011;10347;51.828;6.466;2023-02-04T08:10:45;8.98;;;3.15;;
20375;SDS011;10347;51.828;6.466;2023-02-04T08:13:10;11.57;;;3.10;;
20375;SDS011;10347;51.828;6.466;2023-02-04T08:15:36;10.68;;;3.85;;
20375;SDS011;10347;51.828;6.466;2023-02-04T08:18:02;12.55;;;4.07;;
20375;SDS011;10347;51.828;6.466;2023-02-04T08:20:28;13.38;;;3.45;;
20375;SDS011;10347;51.828;6.466;2023-02-04T08:22:53;11.00;;;3.28;;
20375;SDS011;10347;51.828;6.466;2023-02-04T08:25:19;10.60;;;3.83;;
20375;SDS011;10347;51.828;6.466;2023-02-04T08:27:45;13.38;;;3.60;;
20375;SDS011;10347;51.828;6.466;2023-02-04T08:30:10;12.18;;;3.92;;
20375;SDS011;10347;51.828;6.466;2023-02-04T08:32:37;8.40;;;3.13;;
20375;SDS011;10347;51.828;6.466;2023-02-04T08:35:03;13.68;;;3.60;;
20375;SDS011;10347;51.828;6.466;2023-02-04T08:37:29;11.02;;;3.83;;
20375;SDS011;10347;51.828;6.466;2023-02-04T08:39:55;12.05;;;4.05;;
20375;SDS011;10347;51.828;6.466;2023-02-04T08:42:20;12.13;;;3.53;;
20375;SDS011;10347;51.828;6.466;2023-02-04T08:44:46;14.07;;;3.80;;
20375;SDS011;10347;51.828;6.466;2023-02-04T08:47:12;10.07;;;3.53;;
20375;SDS011;10347;51.828;6.466;2023-02-04T08:49:37;13.48;;;3.65;;
20375;SDS011;10347;51.828;6.466;2023-02-04T08:52:03;16.77;;;3.75;;
20375;SDS011;10347;51.828;6.466;2023-02-04T08:54:30;15.25;;;3.67;;
20375;SDS011;10347;51.828;6.466;2023-02-04T08:56:57;9.10;;;4.43;;
20375;SDS011;10347;51.828;6.466;2023-02-04T08:59:23;17.77;;;4.00;;
20375;SDS011;10347;51.828;6.466;2023-02-04T09:01:49;13.60;;;4.07;;
20375;SDS011;10347;51.828;6.466;2023-02-04T09:04:17;16.85;;;4.40;;
20375;SDS011;10347;51.828;6.466;2023-02-04T09:06:43;10.75;;;3.30;;
20375;SDS011;10347;51.828;6.466;2023-02-04T09:09:08;10.73;;;3.70;;
20375;SDS011;10347;51.828;6.466;2023-02-04T09:11:34;9.82;;;3.53;;
20375;SDS011;10347;51.828;6.466;2023-02-04T09:14:00;12.68;;;3.80;;
20375;SDS011;10347;51.828;6.466;2023-02-04T09:16:25;17.60;;;4.95;;
20375;SDS011;10347;51.828;6.466;2023-02-04T09:18:51;16.45;;;4.60;;
20375;SDS011;10347;51.828;6.466;2023-02-04T09:21:16;12.50;;;4.57;;
20375;SDS011;10347;51.828;6.466;2023-02-04T09:23:42;19.85;;;4.93;;
20375;SDS011;10347;51.828;6.466;2023-02-04T09:26:08;13.25;;;4.00;;
20375;SDS011;10347;51.828;6.466;2023-02-04T09:28:34;19.92;;;4.53;;
20375;SDS011;10347;51.828;6.466;2023-02-04T09:31:00;20.05;;;5.10;;
20375;SDS011;10347;51.828;6.466;2023-02-04T09:33:25;16.30;;;4.20;;
20375;SDS011;10347;51.828;6.466;2023-02-04T09:35:51;19.65;;;4.00;;
20375;SDS011;10347;51.828;6.466;2023-02-04T09:38:16;14.88;;;3.45;;
20375;SDS011;10347;51.828;6.466;2023-02-04T09:40:46;20.20;;;4.10;;
20375;SDS011;10347;51.828;6.466;2023-02-04T09:43:16;17.75;;;4.03;;
20375;SDS011;10347;51.828;6.466;2023-02-04T09:45:46;20.17;;;4.15;;
20375;SDS011;10347;51.828;6.466;2023-02-04T09:48:13;16.27;;;4.13;;
20375;SDS011;10347;51.828;6.466;2023-02-04T09:50:39;20.48;;;4.65;;
20375;SDS011;10347;51.828;6.466;2023-02-04T09:53:05;18.45;;;3.50;;
20375;SDS011;10347;51.828;6.466;2023-02-04T09:55:39;17.98;;;3.97;;
20375;SDS011;10347;51.828;6.466;2023-02-04T09:58:12;14.05;;;4.13;;
20375;SDS011;10347;51.828;6.466;2023-02-04T10:00:41;11.35;;;4.07;;
20375;SDS011;10347;51.828;6.466;2023-02-04T10:03:10;19.40;;;4.40;;
20375;SDS011;10347;51.828;6.466;2023-02-04T10:05:39;18.55;;;4.18;;
20375;SDS011;10347;51.828;6.466;2023-02-04T10:08:05;16.17;;;4.35;;
20375;SDS011;10347;51.828;6.466;2023-02-04T10:10:30;15.00;;;4.68;;
20375;SDS011;10347;51.828;6.466;2023-02-04T10:12:57;12.13;;;3.80;;
20375;SDS011;10347;51.828;6.466;2023-02-04T10:15:25;15.65;;;3.90;;
20375;SDS011;10347;51.828;6.466;2023-02-04T10:17:53;12.95;;;4.18;;
20375;SDS011;10347;51.828;6.466;2023-02-04T10:20:22;14.00;;;3.72;;
20375;SDS011;10347;51.828;6.466;2023-02-04T10:22:50;12.82;;;3.10;;
20375;SDS011;10347;51.828;6.466;2023-02-04T10:25:18;14.88;;;4.00;;
20375;SDS011;10347;51.828;6.466;2023-02-04T10:27:49;14.02;;;4.47;;
20375;SDS011;10347;51.828;6.466;2023-02-04T10:30:24;13.30;;;4.05;;
20375;SDS011;10347;51.828;6.466;2023-02-04T10:32:51;20.85;;;5.15;;
20375;SDS011;10347;51.828;6.466;2023-02-04T10:35:18;18.25;;;4.00;;
20375;SDS011;10347;51.828;6.466;2023-02-04T10:37:45;14.43;;;3.78;;
20375;SDS011;10347;51.828;6.466;2023-02-04T10:40:28;16.13;;;4.60;;
20375;SDS011;10347;51.828;6.466;2023-02-04T10:42:56;13.90;;;4.93;;
20375;SDS011;10347;51.828;6.466;2023-02-04T10:45:25;17.20;;;5.03;;
20375;SDS011;10347;51.828;6.466;2023-02-04T10:47:53;21.73;;;5.07;;
20375;SDS011;10347;51.828;6.466;2023-02-04T10:50:20;22.58;;;4.40;;
20375;SDS011;10347;51.828;6.466;2023-02-04T10:52:54;17.92;;;5.07;;
20375;SDS011;10347;51.828;6.466;2023-02-04T10:55:44;16.50;;;4.28;;
20375;SDS011;10347;51.828;6.466;2023-02-04T10:58:12;18.52;;;4.32;;
20375;SDS011;10347;51.828;6.466;2023-02-04T11:00:41;15.95;;;3.67;;
20375;SDS011;10347;51.828;6.466;2023-02-04T11:03:14;20.00;;;4.10;;
20375;SDS011;10347;51.828;6.466;2023-02-04T11:05:46;15.40;;;4.03;;
20375;SDS011;10347;51.828;6.466;2023-02-04T11:08:30;15.40;;;3.88;;
20375;SDS011;10347;51.828;6.466;2023-02-04T11:11:17;16.05;;;4.15;;
20375;SDS011;10347;51.828;6.466;2023-02-04T11:18:54;19.63;;;3.95;;
20375;SDS011;10347;51.828;6.466;2023-02-04T11:23:50;12.70;;;4.10;;
20375;SDS011;10347;51.828;6.466;2023-02-04T11:26:32;20.08;;;5.88;;
20375;SDS011;10347;51.828;6.466;2023-02-04T11:34:07;15.55;;;4.78;;
20375;SDS011;10347;51.828;6.466;2023-02-04T11:36:34;16.75;;;4.57;;
20375;SDS011;10347;51.828;6.466;2023-02-04T11:39:13;10.35;;;3.55;;
20375;SDS011;10347;51.828;6.466;2023-02-04T11:41:42;12.27;;;3.50;;
20375;SDS011;10347;51.828;6.466;2023-02-04T11:44:10;18.95;;;4.10;;
20375;SDS011;10347;51.828;6.466;2023-02-04T11:46:36;17.25;;;4.28;;
20375;SDS011;10347;51.828;6.466;2023-02-04T11:49:02;19.92;;;3.97;;
20375;SDS011;10347;51.828;6.466;2023-02-04T11:51:31;21.50;;;4.63;;
20375;SDS011;10347;51.828;6.466;2023-02-04T11:53:58;20.67;;;7.22;;
20375;SDS011;10347;51.828;6.466;2023-02-04T11:56:26;16.65;;;5.50;;
20375;SDS011;10347;51.828;6.466;2023-02-04T11:58:54;20.25;;;5.97;;
20375;SDS011;10347;51.828;6.466;2023-02-04T12:01:29;19.58;;;5.05;;
20375;SDS011;10347;51.828;6.466;2023-02-04T12:03:56;17.25;;;6.07;;
20375;SDS011;10347;51.828;6.466;2023-02-04T12:06:24;13.32;;;3.70;;
20375;SDS011;10347;51.828;6.466;2023-02-04T12:09:02;21.27;;;4.75;;
20375;SDS011;10347;51.828;6.466;2023-02-04T12:11:31;20.58;;;4.53;;
20375;SDS011;10347;51.828;6.466;2023-02-04T12:13:58;24.42;;;4.80;;
20375;SDS011;10347;51.828;6.466;2023-02-04T12:16:40;18.02;;;5.03;;
20375;SDS011;10347;51.828;6.466;2023-02-04T12:19:09;19.63;;;4.53;;
20375;SDS011;10347;51.828;6.466;2023-02-04T12:21:36;25.92;;;4.85;;
20375;SDS011;10347;51.828;6.466;2023-02-04T12:24:02;24.10;;;4.35;;
20375;SDS011;10347;51.828;6.466;2023-02-04T12:26:28;15.20;;;4.10;;
20375;SDS011;10347;51.828;6.466;2023-02-04T12:28:53;18.80;;;4.50;;
20375;SDS011;10347;51.828;6.466;2023-02-04T12:31:19;17.45;;;3.88;;
20375;SDS011;10347;51.828;6.466;2023-02-04T12:33:44;16.90;;;4.15;;
20375;SDS011;10347;51.828;6.466;2023-02-04T12:36:10;17.75;;;3.97;;
20375;SDS011;10347;51.828;6.466;2023-02-04T12:38:36;19.33;;;4.20;;
20375;SDS011;10347;51.828;6.466;2023-02-04T12:41:01;26.52;;;5.75;;
20375;SDS011;10347;51.828;6.466;2023-02-04T12:43:27;19.67;;;4.88;;
20375;SDS011;10347;51.828;6.466;2023-02-04T12:45:52;18.83;;;5.03;;
20375;SDS011;10347;51.828;6.466;2023-02-04T12:48:18;16.58;;;4.03;;
20375;SDS011;10347;51.828;6.466;2023-02-04T12:50:43;21.85;;;3.75;;
20375;SDS011;10347;51.828;6.466;2023-02-04T12:53:09;23.08;;;4.43;;
20375;SDS011;10347;51.828;6.466;2023-02-04T12:55:35;23.50;;;4.80;;
20375;SDS011;10347;51.828;6.466;2023-02-04T12:58:00;17.95;;;3.72;;
20375;SDS011;10347;51.828;6.466;2023-02-04T13:00:26;13.05;;;3.40;;
20375;SDS011;10347;51.828;6.466;2023-02-04T13:02:52;20.83;;;4.15;;
20375;SDS011;10347;51.828;6.466;2023-02-04T13:05:19;26.13;;;5.38;;
20375;SDS011;10347;51.828;6.466;2023-02-04T13:07:45;15.73;;;4.00;;
20375;SDS011;10347;51.828;6.466;2023-02-04T13:10:11;15.80;;;4.55;;
20375;SDS011;10347;51.828;6.466;2023-02-04T13:12:37;18.85;;;5.63;;
20375;SDS011;10347;51.828;6.466;2023-02-04T13:15:04;30.80;;;6.20;;
20375;SDS011;10347;51.828;6.466;2023-02-04T13:17:30;19.17;;;5.40;;
20375;SDS011;10347;51.828;6.466;2023-02-04T13:19:55;18.27;;;4.97;;
20375;SDS011;10347;51.828;6.466;2023-02-04T13:22:21;19.77;;;4.90;;
20375;SDS011;10347;51.828;6.466;2023-02-04T13:24:47;20.08;;;4.75;;
20375;SDS011;10347;51.828;6.466;2023-02-04T13:27:12;26.13;;;5.60;;
20375;SDS011;10347;51.828;6.466;2023-02-04T13:29:39;16.88;;;4.35;;
20375;SDS011;10347;51.828;6.466;2023-02-04T13:32:04;15.55;;;3.67;;
20375;SDS011;10347;51.828;6.466;2023-02-04T13:34:30;21.92;;;4.22;;
20375;SDS011;10347;51.828;6.466;2023-02-04T13:36:55;21.48;;;4.68;;
20375;SDS011;10347;51.828;6.466;2023-02-04T13:39:21;17.85;;;4.28;;
20375;SDS011;10347;51.828;6.466;2023-02-04T13:41:47;17.67;;;4.65;;
20375;SDS011;10347;51.828;6.466;2023-02-04T13:44:12;19.55;;;4.53;;
20375;SDS011;10347;51.828;6.466;2023-02-04T13:46:38;16.58;;;3.83;;
20375;SDS011;10347;51.828;6.466;2023-02-04T13:49:03;15.20;;;4.00;;
20375;SDS011;10347;51.828;6.466;2023-02-04T13:51:29;15.50;;;3.70;;
20375;SDS011;10347;51.828;6.466;2023-02-04T13:53:55;19.55;;;3.88;;
20375;SDS011;10347;51.828;6.466;2023-02-04T13:56:20;21.40;;;4.40;;
20375;SDS011;10347;51.828;6.466;2023-02-04T13:58:46;17.00;;;3.80;;
20375;SDS011;10347;51.828;6.466;2023-02-04T14:01:12;19.23;;;4.57;;
20375;SDS011;10347;51.828;6.466;2023-02-04T14:03:38;17.98;;;3.65;;
20375;SDS011;10347;51.828;6.466;2023-02-04T14:06:04;21.15;;;4.28;;
20375;SDS011;10347;51.828;6.466;2023-02-04T14:08:30;21.08;;;4.30;;
20375;SDS011;10347;51.828;6.466;2023-02-04T14:10:57;14.70;;;3.75;;
20375;SDS011;10347;51.828;6.466;2023-02-04T14:13:22;13.85;;;3.35;;
20375;SDS011;10347;51.828;6.466;2023-02-04T14:15:48;15.77;;;3.88;;
20375;SDS011;10347;51.828;6.466;2023-02-04T14:18:13;20.27;;;5.80;;
20375;SDS011;10347;51.828;6.466;2023-02-04T14:20:42;18.58;;;6.78;;
20375;SDS011;10347;51.828;6.466;2023-02-04T14:23:08;26.65;;;7.88;;
20375;SDS011;10347;51.828;6.466;2023-02-04T14:25:35;23.65;;;7.93;;
20375;SDS011;10347;51.828;6.466;2023-02-04T14:28:01;20.05;;;5.78;;
20375;SDS011;10347;51.828;6.466;2023-02-04T14:30:28;16.73;;;5.53;;
20375;SDS011;10347;51.828;6.466;2023-02-04T14:32:54;15.65;;;4.75;;
20375;SDS011;10347;51.828;6.466;2023-02-04T14:35:20;14.10;;;3.97;;
20375;SDS011;10347;51.828;6.466;2023-02-04T14:37:46;12.25;;;4.00;;
20375;SDS011;10347;51.828;6.466;2023-02-04T14:40:12;16.23;;;3.78;;
20375;SDS011;10347;51.828;6.466;2023-02-04T14:42:39;18.38;;;4.80;;
20375;SDS011;10347;51.828;6.466;2023-02-04T14:45:06;12.18;;;3.90;;
20375;SDS011;10347;51.828;6.466;2023-02-04T14:47:33;14.48;;;3.90;;
20375;SDS011;10347;51.828;6.466;2023-02-04T14:50:00;18.55;;;4.57;;
20375;SDS011;10347;51.828;6.466;2023-02-04T14:52:25;15.45;;;3.67;;
20375;SDS011;10347;51.828;6.466;2023-02-04T14:54:51;19.30;;;4.30;;
20375;SDS011;10347;51.828;6.466;2023-02-04T14:57:17;16.70;;;4.28;;
20375;SDS011;10347;51.828;6.466;2023-02-04T14:59:42;19.15;;;4.53;;
20375;SDS011;10347;51.828;6.466;2023-02-04T15:02:08;18.40;;;3.83;;